Latest Weather Observations for Archerfield

IDQ60801

Issued at 8:02 am EST Monday 3 August 2015 (issued every 30 minutes, with the page automatically refreshed every 10 minutes)

About weather observations | Map of weather stations | Latest weather observations for QLD | Other Formats
Station Details ID: 040211 Name: ARCHERFIELD AIRPORT Lat: -27.57 Lon: 153.01 Height: 12.5 m
Data from the previous 72 hours. | See also: Recent months at Archerfield
Date/Time
EST
Temp
°C
App
Temp
°C
Dew
Point
Rel
Hum
%
Delta-T
°C
Wind Press
QNH
hPa
Press
MSL
hPa
Rain
since 9 am
mm
Dir
 
Spd
km/h
Gust
km/h
Spd
kts
Gust
kts
03/08:00am 13.0 12.2 11.7 92 0.7 SSW 7 9 4 5 1019.3 1019.3 0.0
03/07:30am 11.8 11.0 11.0 95 0.4 S 6 9 3 5 1018.9 1018.9 0.0
03/07:00am 10.0 8.5 9.2 95 0.4 SSW 7 9 4 5 1018.6 1018.6 0.0
03/06:30am 9.7 9.4 8.8 94 0.4 CALM 0 0 0 0 1018.2 1018.2 0.0
03/06:00am 10.5 10.5 9.9 96 0.3 CALM 0 0 0 0 1018.3 1018.3 0.0
03/05:30am 10.2 9.0 9.6 96 0.3 SSW 6 6 3 3 1018.2 1018.2 0.0
03/05:00am 10.0 8.7 9.2 95 0.4 SW 6 7 3 4 1017.9 1017.9 0.0
03/04:30am 10.6 9.2 9.7 94 0.5 S 7 9 4 5 1017.8 1017.8 0.0
03/04:00am 10.7 9.5 9.5 92 0.6 S 6 7 3 4 1017.9 1017.9 0.0
03/03:30am 11.6 10.7 10.7 94 0.5 S 6 7 3 4 1018.0 1018.0 0.0
03/03:00am 12.2 10.9 11.3 94 0.5 S 9 11 5 6 1018.1 1018.1 0.0
03/02:30am 12.7 11.5 11.6 93 0.6 S 9 11 5 6 1018.2 1018.2 0.0
03/02:00am 13.9 14.6 12.1 89 1.0 CALM 0 0 0 0 1018.4 1018.4 0.0
03/01:30am 13.8 14.6 12.4 91 0.8 CALM 0 0 0 0 1018.5 1018.5 0.0
03/01:00am 14.3 13.9 12.5 89 1.0 NNW 6 7 3 4 1018.9 1018.9 0.0
03/12:30am 14.1 12.9 11.6 85 1.3 N 9 11 5 6 1019.0 1019.0 0.0
03/12:00am 15.4 14.5 12.7 84 1.5 N 9 9 5 5 1019.3 1019.3 0.0
 
Date/Time
EST
Temp
°C
App
Temp
°C
Dew
Point
Rel
Hum
%
Delta-T
°C
Wind Press
QNH
hPa
Press
MSL
hPa
Rain
since 9 am
mm
Dir
 
Spd
km/h
Gust
km/h
Spd
kts
Gust
kts
02/11:30pm 16.3 15.3 13.4 83 1.6 NNW 11 17 6 9 1019.4 1019.4 0.0
02/11:00pm 16.5 15.2 13.8 84 1.5 N 13 17 7 9 1019.3 1019.3 0.0
02/10:30pm 16.1 14.3 13.4 84 1.5 NNE 15 19 8 10 1019.5 1019.5 0.0
02/10:00pm 17.1 14.8 14.2 83 1.7 NNE 19 22 10 12 1019.4 1019.4 0.0
02/09:30pm 17.5 15.7 14.4 82 1.8 N 17 20 9 11 1019.5 1019.5 0.0
02/09:00pm 18.2 15.8 14.5 79 2.1 N 20 26 11 14 1019.5 1019.5 0.0
02/08:30pm 18.0 16.1 14.3 79 2.1 N 17 22 9 12 1019.4 1019.4 0.0
02/08:00pm 18.4 16.0 14.5 78 2.2 N 20 24 11 13 1019.4 1019.4 0.0
02/07:30pm 18.6 16.4 14.5 77 2.4 NNE 19 26 10 14 1019.2 1019.2 0.0
02/07:00pm 17.9 15.9 14.0 78 2.2 NNE 17 22 9 12 1019.3 1019.3 0.0
02/06:30pm 18.2 15.9 14.1 77 2.4 NNE 19 24 10 13 1019.1 1019.1 0.0
02/06:00pm 19.0 16.6 14.3 74 2.7 NNE 20 26 11 14 1018.8 1018.8 0.0
02/05:30pm 19.5 17.1 14.3 72 3.0 NNE 20 28 11 15 1018.6 1018.6 0.0
02/05:00pm 20.8 18.8 14.0 65 3.9 NE 17 22 9 12 1018.5 1018.5 0.0
02/04:30pm 22.5 19.9 13.8 58 5.1 NNE 20 26 11 14 1018.5 1018.5 0.0
02/04:00pm 23.5 20.9 13.7 54 5.7 NE 20 30 11 16 1018.4 1018.4 0.0
02/03:30pm 24.1 21.0 13.3 51 6.3 NE 22 28 12 15 1018.5 1018.5 0.0
02/03:00pm 25.0 22.0 12.6 46 7.1 NNE 20 28 11 15 1018.6 1018.6 0.0
02/02:30pm 25.5 21.7 9.7 37 8.7 N 20 28 11 15 1018.7 1018.7 0.0
02/02:00pm 25.1 21.2 9.4 37 8.6 N 20 24 11 13 1019.1 1019.1 0.0
02/01:30pm 24.9 20.8 8.8 36 8.7 N 20 28 11 15 1019.4 1019.4 0.0
02/01:00pm 24.6 23.3 11.2 43 7.5 N 9 15 5 8 1020.0 1020.0 0.0
02/12:30pm 23.9 22.6 11.2 44 7.1 NNW 9 17 5 9 1020.6 1020.6 0.0
02/12:00pm 22.4 20.2 10.9 48 6.3 N 13 17 7 9 1021.2 1021.2 0.0
02/11:30am 22.0 20.7 11.4 51 5.9 NW 9 13 5 7 1021.8 1021.8 0.0
02/11:00am 20.8 20.0 11.2 54 5.3 WSW 6 9 3 5 1022.5 1022.5 0.0
02/10:30am 19.7 18.8 10.7 56 4.9 S 6 11 3 6 1023.0 1023.0 0.0
02/10:00am 18.2 17.1 10.8 62 4.0 SW 7 11 4 6 1023.3 1023.3 0.0
02/09:30am 16.6 15.5 10.5 67 3.2 SSW 7 9 4 5 1023.4 1023.4 0.0
02/09:00am 14.8 13.7 10.0 73 2.5 S 6 9 3 5 1023.4 1023.4 0.0
02/08:30am 12.8 11.4 9.6 81 1.6 SW 7 9 4 5 1023.4 1023.4 0.0
02/08:00am 11.6 11.3 8.8 83 1.4 CALM 0 0 0 0 1023.3 1023.3 0.0
02/07:30am 10.3 10.1 9.1 92 0.6 CALM 0 0 0 0 1023.3 1023.3 0.0
02/07:00am 8.2 6.8 7.1 93 0.5 SSW 4 7 2 4 1023.1 1023.1 0.0
02/06:30am 7.5 6.7 6.6 94 0.4 CALM 0 0 0 0 1022.9 1022.9 0.0
02/06:00am 8.1 7.1 7.3 95 0.4 SSW 2 6 1 3 1022.5 1022.5 0.0
02/05:49am 8.2 7.3 7.6 96 0.3 WSW 2 6 1 3 1022.3 1022.3 0.0
02/05:30am 8.3 7.0 7.5 95 0.4 NNW 4 6 2 3 1022.3 1022.3 0.0
02/05:15am 7.2 6.2 5.8 91 0.6 CALM 0 7 0 4 1022.1 1022.1 0.0
02/05:00am 8.4 7.8 7.3 93 0.5 CALM 0 0 0 0 1021.9 1021.9 0.0
02/04:58am 8.5 7.9 7.4 93 0.5 CALM 0 0 0 0 1021.9 1021.9 0.0
02/04:30am 8.3 7.6 7.1 92 0.6 CALM 0 0 0 0 1021.9 1021.9 0.0
02/04:29am 8.5 7.9 7.3 92 0.6 CALM 0 0 0 0 1021.9 1021.9 0.0
02/04:00am 9.8 8.4 8.9 94 0.4 SW 6 7 3 4 1022.0 1022.0 0.0
02/03:30am 9.8 9.6 9.0 95 0.4 CALM 0 0 0 0 1021.9 1021.9 0.0
02/03:25am 10.2 10.1 9.4 95 0.4 CALM 0 0 0 0 1022.0 1022.0 0.0
02/03:06am 8.9 8.4 7.8 93 0.5 CALM 0 0 0 0 1021.9 1021.9 0.0
02/03:00am 9.0 8.5 7.8 92 0.6 CALM 0 0 0 0 1022.0 1022.0 0.0
02/02:30am 10.4 9.2 9.5 94 0.5 S 6 7 3 4 1022.1 1022.1 0.0
02/02:00am 10.1 8.7 9.0 93 0.5 S 6 7 3 4 1022.3 1022.3 0.0
02/01:30am 10.4 9.0 9.6 95 0.4 SSW 7 9 4 5 1022.4 1022.4 0.0
02/01:00am 10.7 9.0 9.8 94 0.5 SSW 9 13 5 7 1022.6 1022.6 0.0
02/12:30am 10.8 9.1 9.7 93 0.6 SSW 9 11 5 6 1022.8 1022.8 0.0
02/12:00am 10.9 9.6 9.3 90 0.8 S 6 7 3 4 1023.0 1023.0 0.0
 
Date/Time
EST
Temp
°C
App
Temp
°C
Dew
Point
Rel
Hum
%
Delta-T
°C
Wind Press
QNH
hPa
Press
MSL
hPa
Rain
since 9 am
mm
Dir
 
Spd
km/h
Gust
km/h
Spd
kts
Gust
kts
01/11:30pm 11.9 10.8 10.6 92 0.7 S 7 9 4 5 1023.0 1023.0 0.0
01/11:00pm 11.8 11.9 10.2 90 0.8 CALM 0 6 0 3 1023.0 1023.0 0.0
01/10:30pm 13.3 12.2 10.1 81 1.7 E 6 9 3 5 1022.9 1022.9 0.0
01/10:00pm 15.8 15.4 12.5 81 1.8 NE 6 7 3 4 1023.0 1023.0 0.0
01/09:30pm 15.3 14.9 12.4 83 1.6 NNE 6 7 3 4 1023.0 1023.0 0.0
01/09:00pm 14.6 12.8 12.1 85 1.3 NNE 13 15 7 8 1022.6 1022.6 0.0
01/08:30pm 14.9 13.9 12.4 85 1.4 NNE 9 13 5 7 1022.5 1022.5 0.0
01/08:00pm 14.1 13.2 11.3 83 1.5 NNE 7 11 4 6 1022.4 1022.4 0.0
01/07:30pm 15.1 13.7 12.1 82 1.6 NNE 11 17 6 9 1022.0 1022.0 0.0
01/07:00pm 15.5 13.7 12.1 80 1.8 NNE 13 17 7 9 1021.8 1021.8 0.0
01/06:30pm 16.1 14.0 12.3 78 2.1 NNE 15 19 8 10 1021.6 1021.6 0.0
01/06:00pm 16.9 14.4 12.2 74 2.6 NNE 17 20 9 11 1021.4 1021.4 0.0
01/05:30pm 17.7 15.5 12.2 70 3.0 NNE 15 22 8 12 1021.1 1021.1 0.0
01/05:00pm 19.2 16.1 11.5 61 4.2 NNE 19 24 10 13 1020.9 1020.9 0.0
01/04:30pm 20.9 18.1 11.3 54 5.3 NNE 17 20 9 11 1020.8 1020.8 0.0
01/04:00pm 22.2 19.3 11.0 49 6.2 NE 17 22 9 12 1020.7 1020.7 0.0
01/03:30pm 22.8 19.9 10.9 47 6.6 NNE 17 20 9 11 1020.6 1020.6 0.0
01/03:00pm 23.2 21.0 10.9 46 6.8 NNE 13 20 7 11 1020.7 1020.7 0.0
01/02:30pm 23.7 21.5 10.7 44 7.2 NE 13 20 7 11 1020.7 1020.7 0.0
01/02:00pm 23.4 21.0 10.1 43 7.3 NNE 13 20 7 11 1020.8 1020.8 0.0
01/01:30pm 23.6 21.7 10.6 44 7.2 NNE 11 19 6 10 1020.9 1020.9 0.0
01/01:00pm 23.4 20.5 9.8 42 7.4 N 15 20 8 11 1021.4 1021.4 0.0
01/12:30pm 22.9 20.3 9.3 42 7.3 N 13 20 7 11 1021.9 1021.9 0.0
01/12:00pm 21.8 19.8 10.3 48 6.2 N 11 17 6 9 1022.5 1022.5 0.0
01/11:30am 20.9 18.8 9.8 49 6.0 N 11 17 6 9 1023.2 1023.2 0.0
01/11:00am 20.1 19.7 9.9 52 5.4 W 2 7 1 4 1023.5 1023.5 0.0
01/10:30am 18.4 17.2 9.5 56 4.7 WSW 6 9 3 5 1023.9 1023.9 0.0
01/10:00am 16.7 15.0 8.4 58 4.2 WSW 7 11 4 6 1024.3 1024.3 0.0
01/09:30am 15.7 13.9 8.0 60 3.9 WSW 7 11 4 6 1024.4 1024.4 0.0
01/09:00am 14.1 12.1 7.2 63 3.4 W 7 11 4 6 1024.4 1024.4 0.0
01/08:30am 12.3 10.0 7.6 73 2.3 WSW 9 13 5 7 1024.7 1024.7 0.0
01/08:00am 10.3 9.0 7.5 83 1.3 SSW 4 7 2 4 1024.1 1024.1 0.0
01/07:30am 9.1 8.5 7.2 88 0.9 CALM 0 0 0 0 1023.7 1023.7 0.0
01/07:00am 7.0 6.1 5.9 93 0.5 CALM 0 0 0 0 1023.4 1023.4 0.0
01/06:30am 6.4 5.4 5.4 93 0.4 CALM 0 0 0 0 1023.1 1023.1 0.0
01/06:00am 6.4 5.3 5.2 92 0.5 CALM 0 4 0 2 1022.8 1022.8 0.0
01/05:30am 6.8 5.4 5.7 93 0.5 SSW 2 7 1 4 1022.6 1022.6 0.0
01/05:00am 7.5 5.5 6.4 93 0.5 S 6 7 3 4 1022.6 1022.6 0.0
01/04:30am 6.9 5.9 5.4 90 0.7 CALM 0 0 0 0 1022.4 1022.4 0.0
01/04:00am 7.1 6.1 5.6 90 0.7 CALM 0 0 0 0 1022.4 1022.4 0.0
01/03:30am 8.2 6.3 6.5 89 0.8 S 6 7 3 4 1022.3 1022.3 0.0
01/03:00am 8.0 7.2 6.6 91 0.6 CALM 0 0 0 0 1022.4 1022.4 0.0
01/02:30am 8.1 6.2 6.6 90 0.7 S 6 6 3 3 1022.8 1022.8 0.0
01/02:00am 9.7 8.0 8.3 91 0.7 SE 7 9 4 5 1022.7 1022.7 0.0
01/01:30am 8.7 6.5 6.3 85 1.1 SW 7 9 4 5 1022.8 1022.8 0.0
01/01:00am 9.8 8.3 8.4 91 0.7 SW 6 7 3 4 1022.9 1022.9 0.0
01/12:30am 9.9 7.9 8.5 91 0.7 SSW 9 11 5 6 1022.9 1022.9 0.0
01/12:00am 10.0 7.8 7.8 86 1.1 S 9 11 5 6 1022.8 1022.8 0.0
 
Date/Time
EST
Temp
°C
App
Temp
°C
Dew
Point
Rel
Hum
%
Delta-T
°C
Wind Press
QNH
hPa
Press
MSL
hPa
Rain
since 9 am
mm
Dir
 
Spd
km/h
Gust
km/h
Spd
kts
Gust
kts
31/11:30pm 11.2 8.6 9.5 89 0.9 S 13 15 7 8 1022.5 1022.5 0.0
31/11:00pm 10.5 8.9 8.6 88 0.9 S 7 11 4 6 1022.3 1022.3 0.0
31/10:30pm 11.8 9.8 10.0 89 0.9 S 11 13 6 7 1022.5 1022.5 0.0
31/10:00pm 11.6 11.3 8.8 83 1.4 CALM 0 0 0 0 1022.5 1022.5 0.0
31/09:30pm 14.1 13.0 9.9 76 2.2 E 6 7 3 4 1022.3 1022.3 0.0
31/09:00pm 15.4 14.0 11.0 75 2.3 E 9 11 5 6 1022.2 1022.2 0.0
31/08:30pm 15.8 14.5 11.2 74 2.5 ENE 9 11 5 6 1021.9 1021.9 0.0
31/08:00pm 14.3 12.5 9.5 73 2.5 NNE 9 11 5 6 1021.7 1021.7 0.0
31/07:30pm 15.1 13.6 10.7 75 2.3 NE 9 9 5 5 1021.3 1021.3 0.0
31/07:00pm 14.6 12.5 9.8 73 2.5 N 11 15 6 8 1020.9 1020.9 0.0
31/06:30pm 16.1 14.2 10.4 69 3.0 NNE 11 13 6 7 1020.7 1020.7 0.0
31/06:00pm 16.9 14.4 9.6 62 3.8 NE 13 17 7 9 1020.3 1020.3 0.0
31/05:30pm 19.6 17.5 5.6 40 6.9 NE 6 9 3 5 1020.2 1020.2 0.0
31/05:00pm 21.7 19.5 6.0 36 7.9 S 7 9 4 5 1020.0 1020.0 0.0
31/04:30pm 23.0 21.4 4.5 30 9.1 W 2 6 1 3 1020.0 1020.0 0.0
31/04:00pm 24.2 22.5 4.0 27 9.9 W 2 7 1 4 1020.0 1020.0 0.0
31/03:30pm 24.0 21.6 5.4 30 9.4 SW 7 13 4 7 1019.8 1019.8 0.0
31/03:00pm 23.9 21.6 7.5 35 8.6 WSW 9 17 5 9 1019.9 1019.9 0.0
31/02:30pm 23.5 20.6 6.7 34 8.7 W 11 20 6 11 1020.2 1020.2 0.0
31/02:00pm 23.2 19.1 6.0 33 8.7 SW 17 24 9 13 1020.4 1020.4 0.0
31/01:30pm 22.9 18.9 6.6 35 8.4 WSW 17 24 9 13 1020.7 1020.7 0.0
31/01:00pm 22.5 19.3 8.6 41 7.4 W 15 22 8 12 1021.1 1021.1 0.0
31/12:30pm 21.5 18.2 8.1 42 7.0 W 15 22 8 12 1021.7 1021.7 0.0
31/12:00pm 21.2 16.9 7.8 42 6.9 W 20 32 11 17 1022.3 1022.3 0.0
31/11:30am 20.9 17.1 9.8 49 6.0 WSW 20 28 11 15 1023.0 1023.0 0.0
31/11:00am 20.2 16.3 10.9 55 5.1 W 22 32 12 17 1023.4 1023.4 0.0
31/10:30am 19.6 16.2 11.1 58 4.6 W 20 26 11 14 1023.6 1023.6 0.0
31/10:00am 18.1 15.0 11.7 66 3.5 W 19 26 10 14 1023.8 1023.8 0.0
31/09:30am 15.4 14.1 11.4 77 2.1 W 9 15 5 8 1024.5 1024.5 0.0
31/09:00am 12.7 11.1 10.2 85 1.3 W 9 11 5 6 1024.7 1024.7 0.0
31/08:30am 12.1 10.5 10.2 88 1.0 WNW 9 11 5 6 1024.5 1024.5 0.0

Other Formats:

Comma delimited format used in spreadsheet applications
http://www.bom.gov.au/fwo/IDQ60801/IDQ60801.94575.axf

JavaScript Object Notation format (JSON) in row-major order
http://www.bom.gov.au/fwo/IDQ60801/IDQ60801.94575.json